createdAt,value
2022-12-15T00:16:52.418Z,247
2022-12-15T00:36:52.459Z,247
2022-12-15T00:56:52.485Z,245
2022-12-15T01:16:52.586Z,246
2022-12-15T01:56:52.606Z,247
2022-12-15T02:16:52.649Z,244
2022-12-15T02:36:52.676Z,247
2022-12-15T02:56:52.718Z,240
2022-12-15T03:16:52.800Z,243
2022-12-15T03:36:52.781Z,247
2022-12-15T03:56:52.812Z,242
2022-12-15T04:16:52.916Z,243
2022-12-15T04:36:52.880Z,249
2022-12-15T04:56:52.937Z,242
2022-12-15T05:16:53.014Z,242
2022-12-15T05:36:53.002Z,245
2022-12-15T05:56:53.040Z,242
2022-12-15T06:16:53.110Z,242
2022-12-15T06:56:52.947Z,243
2022-12-15T07:16:53.213Z,243
2022-12-15T07:36:53.237Z,242
2022-12-15T07:56:53.301Z,243
2022-12-15T08:16:53.318Z,240
2022-12-15T08:36:53.375Z,246
2022-12-15T08:56:53.394Z,246
2022-12-15T09:16:53.443Z,246
2022-12-15T09:36:53.511Z,249
2022-12-15T09:56:53.508Z,251
2022-12-15T10:16:53.532Z,250
2022-12-15T10:36:53.555Z,250
2022-12-15T10:56:53.569Z,249
2022-12-15T11:16:53.668Z,248
2022-12-15T11:36:53.643Z,248
2022-12-15T11:56:53.665Z,246
2022-12-15T12:16:53.686Z,248
2022-12-15T12:36:53.754Z,249
2022-12-15T12:56:53.775Z,249
2022-12-15T13:17:17.092Z,245
2022-12-15T13:36:55.265Z,247
2022-12-15T13:56:53.818Z,246
2022-12-15T14:16:53.887Z,245
2022-12-15T14:36:53.715Z,245
2022-12-15T14:56:53.719Z,243
2022-12-15T15:16:53.978Z,242
2022-12-15T15:36:53.957Z,244
2022-12-15T15:56:54.035Z,245
2022-12-15T16:16:53.834Z,242
2022-12-15T16:36:54.046Z,245
2022-12-15T16:56:54.076Z,244
2022-12-15T17:16:54.112Z,245
2022-12-15T17:36:53.954Z,240
2022-12-15T17:56:54.201Z,237
2022-12-15T18:36:54.222Z,237
2022-12-15T18:56:54.812Z,235
2022-12-15T19:16:54.332Z,237
2022-12-15T19:36:54.346Z,236
2022-12-15T19:56:54.361Z,238
2022-12-15T20:16:54.415Z,239
2022-12-15T20:36:54.436Z,235
2022-12-15T20:56:54.506Z,234
2022-12-15T21:16:54.542Z,236
2022-12-15T21:36:54.891Z,235
2022-12-15T21:56:54.603Z,235
2022-12-15T22:16:54.735Z,237
2022-12-15T22:36:54.848Z,234
2022-12-15T22:56:54.822Z,239
2022-12-15T23:16:54.781Z,238
2022-12-15T23:36:54.774Z,236
2022-12-15T23:56:54.839Z,235
